Time;durP1;ratioP1;P1;durP2;ratioP2;P2;SDS_P1;SDS_P2;PMS_P1;PMS_P2;Temp;Humidity;BMP_temperature;BMP_pressure;BME280_temperature;BME280_humidity;BME280_pressure;Samples;Min_cycle;Max_cycle;Signal;HPM_P1;HPM_P2
2022/12/07 07:12:10;;;;;;;8.55;6.22;;;3.70;99.90;;;;;;5074310;24;20045;-80
2022/12/07 07:14:36;;;;;;;11.13;6.20;;;3.70;99.90;;;;;;4852025;29;20046;-80
2022/12/07 07:17:03;;;;;;;13.90;7.68;;;3.60;99.90;;;;;;4844236;29;20050;-79
2022/12/07 07:19:30;;;;;;;13.55;8.50;;;3.60;99.90;;;;;;4855158;29;20132;-79
2022/12/07 07:21:57;;;;;;;21.27;12.20;;;3.60;99.90;;;;;;4848414;29;20064;-80
2022/12/07 07:24:23;;;;;;;21.13;13.07;;;3.60;99.90;;;;;;4843312;29;20058;-80
2022/12/07 07:26:50;;;;;;;17.35;10.73;;;3.50;99.90;;;;;;4842718;29;20066;-80
2022/12/07 07:29:16;;;;;;;15.27;10.32;;;3.40;99.90;;;;;;4840684;29;20054;-80
2022/12/07 07:31:43;;;;;;;21.25;10.98;;;3.40;99.90;;;;;;4841945;29;20046;-80
2022/12/07 07:34:10;;;;;;;25.77;12.05;;;3.30;99.90;;;;;;4841729;29;20061;-80
2022/12/07 07:36:36;;;;;;;19.40;11.20;;;3.10;99.90;;;;;;4841641;29;20058;-79
2022/12/07 07:39:04;;;;;;;25.27;12.70;;;3.00;99.90;;;;;;4841206;29;20058;-81
2022/12/07 07:41:31;;;;;;;20.35;11.32;;;3.00;99.90;;;;;;4841982;29;20054;-81
2022/12/07 07:43:58;;;;;;;22.13;12.57;;;3.00;99.90;;;;;;4843948;29;20056;-81
2022/12/07 07:46:24;;;;;;;22.80;11.13;;;3.00;99.90;;;;;;4842367;29;20050;-81
2022/12/07 07:48:51;;;;;;;24.33;11.57;;;3.00;99.90;;;;;;4841641;29;20125;-81
2022/12/07 07:51:18;;;;;;;17.55;11.10;;;3.00;99.90;;;;;;4842749;29;20068;-81
2022/12/07 07:53:44;;;;;;;20.10;9.93;;;2.90;99.90;;;;;;4851372;29;20050;-82
2022/12/07 07:56:11;;;;;;;17.40;9.05;;;2.90;99.90;;;;;;4841048;29;20058;-81
2022/12/07 07:58:39;;;;;;;18.23;10.15;;;2.90;99.90;;;;;;4842860;29;20515;-81
2022/12/07 08:01:07;;;;;;;17.25;10.25;;;2.90;99.90;;;;;;4856444;29;20510;-79
2022/12/07 08:03:34;;;;;;;17.98;8.50;;;2.90;99.90;;;;;;4842718;29;20500;-81
2022/12/07 08:06:04;;;;;;;17.17;9.38;;;2.80;99.90;;;;;;4843223;29;20062;-81
2022/12/07 08:08:31;;;;;;;13.85;8.48;;;2.80;99.90;;;;;;4843540;29;20050;-80
2022/12/07 08:11:01;;;;;;;13.45;8.18;;;2.80;99.90;;;;;;4851096;29;20061;-81
2022/12/07 08:13:27;;;;;;;16.33;9.15;;;2.80;99.90;;;;;;4843099;29;20058;-82
2022/12/07 08:15:57;;;;;;;17.35;8.93;;;2.90;99.90;;;;;;4842934;29;20054;-81
2022/12/07 08:18:24;;;;;;;13.27;7.90;;;2.90;99.90;;;;;;4842350;29;20522;-82
2022/12/07 08:20:50;;;;;;;14.32;7.53;;;3.00;99.90;;;;;;4841869;29;20050;-81
2022/12/07 08:23:17;;;;;;;11.13;7.28;;;3.10;99.90;;;;;;4843141;29;20050;-81
2022/12/07 08:25:44;;;;;;;11.52;6.47;;;3.10;99.90;;;;;;4843362;29;20410;-82
2022/12/07 08:28:10;;;;;;;12.90;7.45;;;3.20;99.90;;;;;;4840797;29;20062;-82
2022/12/07 08:30:37;;;;;;;11.52;7.20;;;3.30;99.90;;;;;;4841849;29;20065;-81
2022/12/07 08:33:04;;;;;;;12.23;7.88;;;3.40;99.90;;;;;;4844007;29;20450;-81
2022/12/07 08:35:33;;;;;;;13.40;7.28;;;3.40;99.90;;;;;;4846435;29;20057;-81
2022/12/07 08:38:01;;;;;;;13.00;8.23;;;3.50;99.90;;;;;;4846463;29;20062;-82
2022/12/07 08:40:29;;;;;;;21.73;11.77;;;3.40;99.90;;;;;;4849845;29;20050;-82
2022/12/07 08:42:55;;;;;;;21.42;12.25;;;3.50;99.90;;;;;;4846817;29;20066;-83
2022/12/07 08:45:22;;;;;;;19.55;11.65;;;3.50;99.90;;;;;;4846037;29;20046;-82
2022/12/07 08:47:58;;;;;;;22.52;11.80;;;3.50;99.90;;;;;;4838483;29;20064;-81
2022/12/07 08:50:25;;;;;;;19.08;11.18;;;3.50;99.90;;;;;;4852115;29;20137;-80
2022/12/07 08:52:54;;;;;;;22.70;12.77;;;3.50;99.90;;;;;;4842108;29;20046;-81
2022/12/07 08:55:21;;;;;;;25.13;12.63;;;3.60;99.90;;;;;;4834176;29;20058;-79
2022/12/07 08:57:49;;;;;;;21.17;11.77;;;3.50;99.90;;;;;;4845619;29;20053;-81
2022/12/07 09:00:19;;;;;;;20.80;12.68;;;3.50;99.90;;;;;;4843976;29;20050;-80
2022/12/07 09:02:46;;;;;;;23.50;12.70;;;3.40;99.90;;;;;;4836940;29;20046;-79
2022/12/07 09:05:16;;;;;;;28.98;13.75;;;3.40;99.90;;;;;;4838022;29;20492;-81
2022/12/07 09:07:49;;;;;;;26.52;12.90;;;3.30;99.90;;;;;;4842265;29;20054;-81
2022/12/07 09:10:17;;;;;;;25.73;12.80;;;3.20;99.90;;;;;;4843806;29;20057;-80
2022/12/07 09:12:44;;;;;;;24.85;13.15;;;3.30;99.90;;;;;;4853484;29;20081;-80
2022/12/07 09:15:10;;;;;;;23.10;11.52;;;3.20;99.90;;;;;;4832988;29;20157;-80
2022/12/07 09:17:37;;;;;;;18.83;10.98;;;3.20;99.90;;;;;;4840486;29;20046;-80
2022/12/07 09:20:05;;;;;;;18.55;10.50;;;3.20;99.90;;;;;;4842967;29;20057;-80
2022/12/07 09:22:33;;;;;;;19.88;11.07;;;3.20;99.90;;;;;;4839370;29;20046;-80
2022/12/07 09:25:00;;;;;;;18.58;9.77;;;3.20;99.90;;;;;;4837094;29;20054;-82
2022/12/07 09:27:27;;;;;;;15.48;9.57;;;3.40;99.90;;;;;;4834823;29;20050;-79
2022/12/07 09:29:54;;;;;;;17.10;9.85;;;3.20;99.90;;;;;;4840765;29;20058;-81
2022/12/07 09:32:21;;;;;;;19.80;10.38;;;3.30;99.90;;;;;;4858811;24;20077;-81
2022/12/07 09:34:48;;;;;;;19.27;10.32;;;3.30;99.90;;;;;;4851555;29;20050;-81
2022/12/07 09:37:15;;;;;;;18.40;10.50;;;3.30;99.90;;;;;;4854066;29;20049;-80
2022/12/07 09:39:42;;;;;;;20.65;11.13;;;3.40;99.90;;;;;;4851804;29;20050;-81
2022/12/07 09:42:33;;;;;;;17.35;10.07;;;3.40;99.90;;;;;;4844834;29;20128;-81
2022/12/07 09:45:01;;;;;;;18.15;10.63;;;3.40;99.90;;;;;;4843354;29;20500;-79
2022/12/07 09:47:29;;;;;;;17.42;10.38;;;3.40;99.90;;;;;;4843397;29;20516;-80
2022/12/07 09:50:19;;;;;;;17.45;9.10;;;3.50;99.90;;;;;;4843814;29;20058;-80
2022/12/07 09:52:47;;;;;;;16.27;9.90;;;3.50;99.90;;;;;;4841952;29;20050;-80
2022/12/07 09:55:18;;;;;;;16.60;9.52;;;3.50;99.90;;;;;;4835668;29;20092;-80
2022/12/07 09:57:44;;;;;;;17.10;10.00;;;3.60;99.90;;;;;;4840333;29;20042;-81
2022/12/07 10:00:18;;;;;;;14.18;9.50;;;3.60;99.90;;;;;;4850201;29;20053;-77
2022/12/07 10:02:56;;;;;;;13.23;8.68;;;3.70;99.90;;;;;;4835434;29;20523;-78
2022/12/07 10:05:42;;;;;;;15.93;9.13;;;3.70;99.90;;;;;;4840503;29;20046;-79
2022/12/07 10:08:12;;;;;;;15.93;9.40;;;3.70;99.90;;;;;;4839712;29;20515;-79
2022/12/07 10:10:39;;;;;;;11.88;8.10;;;3.80;99.90;;;;;;4839919;29;20060;-79
2022/12/07 10:13:09;;;;;;;12.88;8.07;;;3.80;99.90;;;;;;4839361;29;20077;-79
2022/12/07 10:15:41;;;;;;;;;;;3.90;99.90;;;;;;4847657;29;20054;-80
2022/12/07 10:18:31;;;;;;;12.38;7.35;;;3.90;99.90;;;;;;4838646;29;19935;-79
2022/12/07 10:21:07;;;;;;;12.05;6.25;;;3.90;99.90;;;;;;4847463;29;20138;-80
2022/12/07 10:23:39;;;;;;;13.55;7.15;;;4.00;99.90;;;;;;4841572;29;20152;-78
2022/12/07 10:26:29;;;;;;;11.35;7.07;;;4.00;99.90;;;;;;4838313;29;20053;-78
2022/12/07 10:29:00;;;;;;;9.38;6.22;;;4.10;99.90;;;;;;4838269;29;20732;-80
2022/12/07 10:31:27;;;;;;;8.18;5.43;;;4.10;99.90;;;;;;4841004;29;20046;-79
2022/12/07 10:33:56;;;;;;;8.40;5.45;;;4.20;99.90;;;;;;4843273;29;20081;-77
2022/12/07 10:36:34;;;;;;;8.85;4.63;;;4.20;99.90;;;;;;4830308;29;20052;-80
2022/12/07 10:39:15;;;;;;;13.68;5.05;;;4.30;99.90;;;;;;4850934;29;20042;-80
2022/12/07 10:42:03;;;;;;;8.77;5.35;;;4.30;99.90;;;;;;4854123;29;20046;-80
2022/12/07 10:44:32;;;;;;;7.38;4.90;;;4.30;99.90;;;;;;4864478;24;20124;-81
2022/12/07 10:47:26;;;;;;;13.57;6.75;;;4.30;99.90;;;;;;4856853;29;20057;-80
2022/12/07 10:50:14;;;;;;;8.85;6.00;;;4.40;99.90;;;;;;4856638;29;20128;-80
2022/12/07 10:53:25;;;;;;;9.98;6.53;;;4.40;99.90;;;;;;4854194;29;20050;-80
2022/12/07 10:56:02;;;;;;;13.52;6.85;;;4.40;99.90;;;;;;4834637;29;20053;-79
2022/12/07 10:58:32;;;;;;;9.00;5.28;;;4.40;99.90;;;;;;4831864;29;20417;-80
2022/12/07 11:01:18;;;;;;;7.05;4.75;;;4.50;99.90;;;;;;4833785;29;21178;-80
2022/12/07 11:04:26;;;;;;;8.40;5.68;;;4.50;99.90;;;;;;4836334;29;20046;-79
2022/12/07 11:07:21;;;;;;;13.05;6.80;;;4.50;99.90;;;;;;4832618;29;20049;-80
2022/12/07 11:10:05;;;;;;;8.98;5.53;;;4.60;99.90;;;;;;4833355;29;20053;-80
2022/12/07 11:12:56;;;;;;;11.75;6.55;;;4.60;99.90;;;;;;4838911;29;20559;-79
2022/12/07 11:15:42;;;;;;;7.78;5.53;;;4.60;99.90;;;;;;4834391;29;20397;-80
2022/12/07 11:18:33;;;;;;;8.50;5.55;;;4.60;99.90;;;;;;4834044;29;20053;-80
2022/12/07 11:21:20;;;;;;;8.55;5.53;;;4.60;99.90;;;;;;4836051;29;20042;-80
2022/12/07 11:24:17;;;;;;;6.60;4.30;;;4.70;99.90;;;;;;4836476;29;20050;-80
2022/12/07 11:27:01;;;;;;;7.78;4.75;;;4.70;99.90;;;;;;4829214;29;20542;-80
2022/12/07 11:30:00;;;;;;;7.32;4.50;;;4.70;99.90;;;;;;4828879;29;20066;-80
2022/12/07 11:33:04;;;;;;;8.07;4.33;;;4.70;99.90;;;;;;4833036;29;20564;-79
2022/12/07 11:35:56;;;;;;;7.63;4.88;;;4.80;99.90;;;;;;4832875;29;20450;-80
2022/12/07 11:38:32;;;;;;;7.20;3.72;;;4.80;99.90;;;;;;4826726;29;20481;-79
2022/12/07 11:41:12;;;;;;;5.47;3.85;;;4.80;99.90;;;;;;4827957;29;20060;-79
2022/12/07 11:44:05;;;;;;;5.40;3.78;;;4.80;99.90;;;;;;4834739;29;20129;-80
2022/12/07 11:46:48;;;;;;;5.45;3.65;;;4.90;99.90;;;;;;4832129;29;20050;-79
2022/12/07 11:49:37;;;;;;;5.65;3.88;;;5.00;99.90;;;;;;4835884;29;20133;-79
2022/12/07 11:52:09;;;;;;;3.50;2.67;;;5.00;99.90;;;;;;4828564;29;20119;-79
2022/12/07 11:54:41;;;;;;;4.82;3.42;;;5.00;99.90;;;;;;4824259;29;20398;-79
2022/12/07 11:57:17;;;;;;;3.90;2.45;;;5.00;99.90;;;;;;4827872;29;20496;-79
2022/12/07 11:59:50;;;;;;;3.72;2.58;;;5.10;99.90;;;;;;4839720;29;20500;-79
2022/12/07 12:02:24;;;;;;;3.25;2.25;;;5.10;99.90;;;;;;4839954;29;20057;-79
2022/12/07 12:05:15;;;;;;;6.05;2.58;;;5.00;99.90;;;;;;4836141;29;20058;-79
2022/12/07 12:07:44;;;;;;;5.53;3.42;;;5.10;99.90;;;;;;4833457;29;20500;-79
2022/12/07 12:10:50;;;;;;;4.57;2.80;;;5.10;99.90;;;;;;4836525;29;20061;-80
2022/12/07 12:13:58;;;;;;;7.00;4.07;;;5.10;99.90;;;;;;4831237;29;20065;-79
2022/12/07 12:16:47;;;;;;;3.97;2.60;;;5.20;99.90;;;;;;4833668;29;20061;-80
2022/12/07 12:19:21;;;;;;;5.25;2.88;;;5.20;99.90;;;;;;4842509;29;20050;-80
2022/12/07 12:21:54;;;;;;;6.75;4.13;;;5.20;99.90;;;;;;4841856;29;20046;-79
2022/12/07 12:24:28;;;;;;;5.80;3.53;;;5.20;99.90;;;;;;4827508;29;20417;-79
2022/12/07 12:27:09;;;;;;;5.63;3.70;;;5.20;99.90;;;;;;4830741;29;20058;-79
2022/12/07 12:29:41;;;;;;;5.38;3.50;;;5.20;99.90;;;;;;4838763;29;20065;-79
2022/12/07 12:32:13;;;;;;;3.80;2.78;;;5.30;99.90;;;;;;4839084;29;20061;-79
2022/12/07 12:35:13;;;;;;;4.60;2.63;;;5.30;99.90;;;;;;4837435;29;20419;-79
2022/12/07 12:37:42;;;;;;;5.97;3.40;;;5.30;99.90;;;;;;4825311;29;20046;-79
2022/12/07 12:40:14;;;;;;;5.57;3.35;;;5.40;99.90;;;;;;4833096;29;20060;-79
2022/12/07 12:42:51;;;;;;;4.30;3.00;;;5.40;99.90;;;;;;4842900;29;20077;-79
2022/12/07 12:45:22;;;;;;;4.05;2.67;;;5.40;99.90;;;;;;4843189;29;20050;-79
2022/12/07 12:47:55;;;;;;;3.60;2.85;;;5.40;99.90;;;;;;4827983;29;20420;-80
2022/12/07 12:50:36;;;;;;;5.18;2.55;;;5.40;99.90;;;;;;4832491;29;20054;-79
2022/12/07 12:53:11;;;;;;;4.82;3.50;;;5.40;99.90;;;;;;4835265;29;20055;-80
2022/12/07 12:55:41;;;;;;;6.43;4.18;;;5.40;99.90;;;;;;4840635;29;20061;-79
2022/12/07 12:58:19;;;;;;;6.68;3.85;;;5.40;99.90;;;;;;4842801;29;20050;-80
2022/12/07 13:00:48;;;;;;;7.35;4.15;;;5.40;99.90;;;;;;4843146;29;20054;-79
2022/12/07 13:03:28;;;;;;;6.00;3.67;;;5.50;99.90;;;;;;4843086;29;20054;-79
2022/12/07 13:06:31;;;;;;;6.60;3.00;;;5.50;99.90;;;;;;4830660;29;20062;-79
2022/12/07 13:08:59;;;;;;;4.63;2.75;;;5.50;99.90;;;;;;4833535;29;20054;-79
2022/12/07 13:11:41;;;;;;;3.75;2.75;;;5.50;99.90;;;;;;4834355;29;20061;-79
2022/12/07 13:14:40;;;;;;;3.67;2.95;;;5.50;99.90;;;;;;4834178;29;20058;-79
2022/12/07 13:17:12;;;;;;;6.30;3.53;;;5.50;99.90;;;;;;4840963;29;20054;-79
2022/12/07 13:19:42;;;;;;;4.82;3.10;;;5.50;99.90;;;;;;4841790;29;20484;-79
2022/12/07 13:22:32;;;;;;;5.80;3.28;;;5.50;99.90;;;;;;4840327;29;20054;-79
2022/12/07 13:25:16;;;;;;;6.10;4.10;;;5.50;99.90;;;;;;4837882;29;20061;-79
2022/12/07 13:28:00;;;;;;;4.43;3.38;;;5.50;99.90;;;;;;4842358;29;20512;-79
2022/12/07 13:30:29;;;;;;;4.20;3.25;;;5.60;99.90;;;;;;4826822;29;20065;-79
2022/12/07 13:32:59;;;;;;;3.85;2.65;;;5.60;99.90;;;;;;4835288;29;20484;-79
2022/12/07 13:35:39;;;;;;;5.10;3.35;;;5.60;99.90;;;;;;4838007;29;20058;-79
2022/12/07 13:38:22;;;;;;;4.20;2.15;;;5.60;99.90;;;;;;4845036;29;20050;-80
2022/12/07 13:41:11;;;;;;;4.80;2.83;;;5.60;99.90;;;;;;4828381;29;20054;-79
2022/12/07 13:44:02;;;;;;;4.97;3.50;;;5.60;99.90;;;;;;4842815;29;20061;-79
2022/12/07 13:47:03;;;;;;;4.10;3.28;;;5.60;99.90;;;;;;4841946;29;20114;-81
2022/12/07 13:49:32;;;;;;;5.60;3.83;;;5.60;99.90;;;;;;4830985;29;20050;-79
2022/12/07 13:52:19;;;;;;;4.60;3.03;;;5.60;99.90;;;;;;4832941;29;20058;-79
2022/12/07 13:54:55;;;;;;;4.65;3.00;;;5.60;99.90;;;;;;4840404;29;20054;-79
2022/12/07 13:57:24;;;;;;;4.03;2.78;;;5.60;99.90;;;;;;4833379;29;20050;-79
2022/12/07 13:59:51;;;;;;;4.75;3.03;;;5.60;99.90;;;;;;4830978;29;20058;-79
2022/12/07 14:02:31;;;;;;;4.88;2.15;;;5.60;99.90;;;;;;4828066;29;20057;-79
2022/12/07 14:05:22;;;;;;;2.50;1.70;;;5.60;99.90;;;;;;4832821;29;20054;-79
2022/12/07 14:07:59;;;;;;;2.50;1.73;;;5.60;99.90;;;;;;4841911;29;20058;-79
2022/12/07 14:10:31;;;;;;;5.90;2.90;;;5.60;99.90;;;;;;4839488;29;20416;-79
2022/12/07 14:12:58;;;;;;;3.70;2.00;;;5.60;99.90;;;;;;4835784;29;20061;-78
2022/12/07 14:15:31;;;;;;;2.58;1.90;;;5.50;99.90;;;;;;4836956;29;20042;-82
2022/12/07 14:18:03;;;;;;;3.97;1.67;;;5.50;99.90;;;;;;4838031;29;20054;-80
2022/12/07 14:20:36;;;;;;;4.85;1.73;;;5.50;99.90;;;;;;4831861;29;20064;-81
2022/12/07 14:23:10;;;;;;;2.67;1.40;;;5.50;99.90;;;;;;4835368;29;20049;-80
2022/12/07 14:25:49;;;;;;;1.95;1.58;;;5.50;99.90;;;;;;4832528;29;20050;-80
2022/12/07 14:28:28;;;;;;;;;;;5.50;99.90;;;;;;4838656;29;20054;-80
2022/12/07 14:30:54;;;;;;;2.42;1.27;;;5.50;99.90;;;;;;4830461;29;19928;-79
2022/12/07 14:33:22;;;;;;;2.10;1.60;;;5.40;99.90;;;;;;4838470;29;20146;-81
2022/12/07 14:35:49;;;;;;;2.55;1.70;;;5.40;99.90;;;;;;4839244;29;20046;-79
2022/12/07 14:38:18;;;;;;;2.13;1.88;;;5.40;99.90;;;;;;4836200;29;20050;-80
2022/12/07 14:40:45;;;;;;;4.00;2.45;;;5.40;99.90;;;;;;4832751;29;20062;-80
2022/12/07 14:43:14;;;;;;;4.15;2.30;;;5.40;99.90;;;;;;4835022;29;20048;-81
2022/12/07 14:45:41;;;;;;;2.80;2.27;;;5.30;99.90;;;;;;4838770;29;20054;-81
2022/12/07 14:48:12;;;;;;;8.23;2.30;;;5.30;99.90;;;;;;4835892;29;20049;-80
2022/12/07 14:50:59;;;;;;;3.88;2.47;;;5.30;99.90;;;;;;4838017;29;20058;-80
2022/12/07 14:53:49;;;;;;;3.03;2.08;;;5.30;99.90;;;;;;4833438;29;20472;-80
2022/12/07 14:56:23;;;;;;;4.82;3.03;;;5.20;99.90;;;;;;4837563;29;20054;-81
2022/12/07 14:58:49;;;;;;;5.47;3.05;;;5.20;99.90;;;;;;4836778;29;20508;-81
2022/12/07 15:01:16;;;;;;;2.70;2.20;;;5.20;99.90;;;;;;4838046;29;20054;-81
2022/12/07 15:03:43;;;;;;;3.72;2.28;;;5.10;99.90;;;;;;4833847;29;20076;-81
2022/12/07 15:06:15;;;;;;;6.35;2.60;;;5.10;99.90;;;;;;4831268;29;20504;-81
2022/12/07 15:08:41;;;;;;;3.97;2.72;;;5.10;99.90;;;;;;4830144;29;20058;-80
2022/12/07 15:11:13;;;;;;;4.88;2.63;;;5.10;99.90;;;;;;4839337;29;20058;-80
2022/12/07 15:16:25;;;;;;;9.02;3.03;;;5.00;99.90;;;;;;4834061;29;20061;-81
2022/12/07 15:18:52;;;;;;;6.60;3.50;;;5.00;99.90;;;;;;4837353;29;20466;-80
2022/12/07 15:21:39;;;;;;;5.93;2.97;;;4.90;99.90;;;;;;4834424;29;20050;-81
2022/12/07 15:24:07;;;;;;;6.93;3.28;;;4.90;99.90;;;;;;4836981;29;20050;-81
2022/12/07 15:26:34;;;;;;;4.65;2.30;;;4.80;99.90;;;;;;4835326;29;20049;-80
2022/12/07 15:29:01;;;;;;;10.50;4.13;;;4.80;99.90;;;;;;4835086;29;20122;-81
2022/12/07 15:31:27;;;;;;;20.40;7.55;;;4.80;99.90;;;;;;4840215;29;20056;-81
2022/12/07 15:34:14;;;;;;;11.10;4.75;;;4.70;99.90;;;;;;4841853;29;20046;-81
2022/12/07 15:36:41;;;;;;;8.10;5.30;;;4.70;99.90;;;;;;4836868;29;20050;-81
2022/12/07 15:39:09;;;;;;;8.02;4.22;;;4.60;99.90;;;;;;4835183;29;20064;-81
2022/12/07 15:41:40;;;;;;;7.65;4.93;;;4.60;99.90;;;;;;4835378;29;20416;-81
2022/12/07 15:46:57;;;;;;;8.32;3.80;;;4.40;99.90;;;;;;4835590;29;20062;-81
2022/12/07 15:49:24;;;;;;;9.05;4.38;;;4.40;99.90;;;;;;4829643;29;20077;-80
2022/12/07 15:51:50;;;;;;;7.10;4.18;;;4.30;99.90;;;;;;4840832;29;20156;-81
2022/12/07 15:54:29;;;;;;;7.68;3.95;;;4.30;99.90;;;;;;4825103;29;20054;-81
2022/12/07 15:56:56;;;;;;;5.55;4.30;;;4.20;99.90;;;;;;4832574;29;20151;-82
2022/12/07 15:59:23;;;;;;;9.00;5.30;;;4.10;99.90;;;;;;4837397;29;20046;-81
2022/12/07 16:01:50;;;;;;;13.00;6.82;;;4.00;99.90;;;;;;4834127;29;20362;-80
2022/12/07 16:04:17;;;;;;;9.73;6.03;;;4.00;99.90;;;;;;4835211;29;20077;-81
2022/12/07 16:06:44;;;;;;;8.88;5.22;;;3.90;99.90;;;;;;4834742;29;20049;-80
2022/12/07 16:09:11;;;;;;;7.13;4.78;;;3.80;99.90;;;;;;4839248;29;20427;-81
2022/12/07 16:11:37;;;;;;;8.95;5.20;;;3.80;99.90;;;;;;4833012;29;20160;-81
2022/12/07 16:14:04;;;;;;;7.43;4.70;;;3.80;99.90;;;;;;4836055;29;20050;-81
2022/12/07 16:16:31;;;;;;;10.13;4.32;;;3.70;99.90;;;;;;4836352;29;20042;-81
2022/12/07 16:18:58;;;;;;;7.03;4.57;;;3.70;99.90;;;;;;4844182;29;20046;-80
2022/12/07 16:21:25;;;;;;;7.30;4.65;;;3.60;99.90;;;;;;4853303;29;20361;-80
2022/12/07 16:23:52;;;;;;;8.80;4.63;;;3.60;99.90;;;;;;4867260;29;20052;-81
2022/12/07 16:26:21;;;;;;;9.25;4.28;;;3.50;99.90;;;;;;4868132;29;20030;-81
2022/12/07 16:28:49;;;;;;;5.72;3.63;;;3.50;99.90;;;;;;4853913;29;20070;-81
2022/12/07 16:31:19;;;;;;;6.80;3.80;;;3.40;99.90;;;;;;4857228;29;20046;-80
2022/12/07 16:33:46;;;;;;;;;;;3.40;99.90;;;;;;4840360;29;20109;-80
2022/12/07 16:36:15;;;;;;;9.43;4.10;;;3.40;99.90;;;;;;4837642;29;19935;-80
2022/12/07 16:39:03;;;;;;;4.95;3.65;;;3.40;99.90;;;;;;4834688;29;20114;-80
2022/12/07 16:41:30;;;;;;;8.02;4.53;;;3.30;99.90;;;;;;4837606;29;20056;-81
2022/12/07 16:43:57;;;;;;;5.70;4.20;;;3.30;99.90;;;;;;4838251;29;20072;-80
2022/12/07 16:46:23;;;;;;;7.03;5.32;;;3.30;99.90;;;;;;4836383;29;20050;-81
2022/12/07 16:48:50;;;;;;;7.35;4.60;;;3.20;99.90;;;;;;4836098;29;20073;-81
2022/12/07 16:51:17;;;;;;;7.40;4.60;;;3.30;99.90;;;;;;4839343;29;20052;-81
2022/12/07 16:53:43;;;;;;;8.40;4.75;;;3.30;99.90;;;;;;4837494;29;20050;-80
2022/12/07 16:56:15;;;;;;;6.88;4.40;;;3.30;99.90;;;;;;4838136;29;20052;-80
2022/12/07 16:58:42;;;;;;;6.32;3.75;;;3.30;99.90;;;;;;4843042;29;20041;-81
2022/12/07 17:01:29;;;;;;;6.95;4.30;;;3.30;99.90;;;;;;4838073;29;20211;-80
2022/12/07 17:03:57;;;;;;;6.75;3.72;;;3.30;99.90;;;;;;4834487;29;20133;-80
2022/12/07 17:06:27;;;;;;;6.60;4.40;;;3.20;99.90;;;;;;4836605;29;20077;-81
2022/12/07 17:08:54;;;;;;;8.13;4.25;;;3.10;99.90;;;;;;4839523;29;20543;-79
2022/12/07 17:11:27;;;;;;;4.88;3.60;;;3.10;99.90;;;;;;4834795;29;20416;-81
2022/12/07 17:16:39;;;;;;;6.75;3.80;;;3.00;99.90;;;;;;4836086;29;20049;-81
2022/12/07 17:19:12;;;;;;;6.63;3.97;;;3.00;99.90;;;;;;4839687;29;20506;-81
2022/12/07 17:21:39;;;;;;;5.13;3.58;;;3.00;99.90;;;;;;4836020;29;20072;-81
2022/12/07 17:24:08;;;;;;;5.70;3.58;;;3.10;99.90;;;;;;4838614;29;20499;-80
2022/12/07 17:26:36;;;;;;;6.53;3.58;;;3.10;99.90;;;;;;4838441;29;20057;-81
2022/12/07 17:29:04;;;;;;;4.85;3.42;;;3.20;99.90;;;;;;4836451;29;20056;-80
2022/12/07 17:31:32;;;;;;;5.20;3.67;;;3.10;99.90;;;;;;4832749;29;20057;-81
2022/12/07 17:33:59;;;;;;;7.40;4.53;;;3.10;99.90;;;;;;4840938;29;20065;-80
2022/12/07 17:36:28;;;;;;;6.40;3.70;;;3.10;99.90;;;;;;4838106;29;20045;-80
2022/12/07 17:38:55;;;;;;;7.28;4.47;;;3.10;99.90;;;;;;4840735;29;20229;-81
2022/12/07 17:44:11;;;;;;;15.48;5.80;;;3.10;99.90;;;;;;4834371;29;20054;-80
2022/12/07 17:46:39;;;;;;;8.32;5.38;;;3.10;99.90;;;;;;4839786;29;20050;-80
2022/12/07 17:49:06;;;;;;;9.25;6.03;;;3.10;99.90;;;;;;4838185;29;20061;-81
2022/12/07 17:54:19;;;;;;;10.57;5.60;;;3.00;99.90;;;;;;4838731;29;20057;-80
2022/12/07 17:56:46;;;;;;;12.55;6.20;;;3.00;99.90;;;;;;4833765;29;20065;-80
2022/12/07 17:59:13;;;;;;;12.40;6.32;;;3.00;99.90;;;;;;4833097;29;20065;-80
2022/12/07 18:01:40;;;;;;;11.32;6.45;;;3.00;99.90;;;;;;4832500;29;20110;-80
2022/12/07 18:04:07;;;;;;;10.80;6.55;;;3.00;99.90;;;;;;4833402;29;20056;-81
2022/12/07 18:06:34;;;;;;;9.48;6.03;;;3.00;99.90;;;;;;4839396;29;20050;-81
2022/12/07 18:09:02;;;;;;;8.25;5.03;;;3.00;99.90;;;;;;4841736;29;20053;-80
2022/12/07 18:11:29;;;;;;;9.05;5.55;;;2.90;99.90;;;;;;4835883;29;20068;-80
2022/12/07 18:13:55;;;;;;;10.63;6.85;;;2.90;99.90;;;;;;4837829;29;20431;-80
2022/12/07 18:16:26;;;;;;;11.63;7.35;;;2.90;99.90;;;;;;4835894;29;20050;-80
2022/12/07 18:18:53;;;;;;;;;;;2.90;99.90;;;;;;4841576;29;20045;-80
2022/12/07 18:21:23;;;;;;;11.45;6.65;;;2.90;99.90;;;;;;4834585;29;20395;-80
2022/12/07 18:23:52;;;;;;;10.10;6.97;;;2.80;99.90;;;;;;4831040;29;20069;-80
2022/12/07 18:26:20;;;;;;;10.57;6.70;;;2.80;99.90;;;;;;4838746;29;20069;-80
2022/12/07 18:28:48;;;;;;;12.15;7.07;;;2.80;99.90;;;;;;4841614;29;20053;-80
2022/12/07 18:31:15;;;;;;;14.93;8.15;;;2.80;99.90;;;;;;4833792;29;20066;-80
2022/12/07 18:33:44;;;;;;;11.82;7.80;;;2.80;99.90;;;;;;4838815;29;20053;-80
2022/12/07 18:36:12;;;;;;;14.88;6.90;;;2.80;99.90;;;;;;4840585;29;20056;-80
2022/12/07 18:38:39;;;;;;;13.98;8.13;;;2.70;99.90;;;;;;4836510;29;20439;-81
2022/12/07 18:41:09;;;;;;;13.38;7.30;;;2.70;99.90;;;;;;4836180;29;20096;-80
2022/12/07 18:43:35;;;;;;;13.38;7.38;;;2.70;99.90;;;;;;4832825;29;20421;-80
2022/12/07 18:46:13;;;;;;;10.27;6.30;;;2.70;99.90;;;;;;4831120;29;20054;-80
2022/12/07 18:48:40;;;;;;;9.73;5.50;;;2.70;99.90;;;;;;4839161;29;20106;-80
2022/12/07 18:51:08;;;;;;;9.13;6.00;;;2.70;99.90;;;;;;4838896;29;20053;-80
2022/12/07 18:53:35;;;;;;;9.50;5.80;;;2.70;99.90;;;;;;4835041;29;20050;-80
2022/12/07 18:56:22;;;;;;;13.32;5.97;;;2.70;99.90;;;;;;4836274;29;20042;-81
2022/12/07 19:01:37;;;;;;;10.00;6.10;;;2.60;99.90;;;;;;4831667;29;20052;-80
2022/12/07 19:04:04;;;;;;;15.10;6.93;;;2.50;99.90;;;;;;4833054;29;20053;-81
2022/12/07 19:06:32;;;;;;;11.63;6.28;;;2.50;99.90;;;;;;4832286;29;20050;-81
2022/12/07 19:08:59;;;;;;;13.82;6.22;;;2.50;99.90;;;;;;4843433;29;20057;-80
2022/12/07 19:11:48;;;;;;;11.80;5.88;;;2.50;99.90;;;;;;4836830;29;20069;-80
2022/12/07 19:14:30;;;;;;;13.07;7.18;;;2.50;99.90;;;;;;4838699;29;20136;-80
2022/12/07 19:17:01;;;;;;;11.15;6.40;;;2.50;99.90;;;;;;4835106;29;20064;-80
2022/12/07 19:19:34;;;;;;;11.35;6.47;;;2.40;99.90;;;;;;4834390;29;20042;-79
2022/12/07 19:22:00;;;;;;;12.13;6.38;;;2.40;99.90;;;;;;4836525;29;20050;-78
2022/12/07 19:24:28;;;;;;;11.00;6.28;;;2.40;99.90;;;;;;4838579;29;20623;-79
2022/12/07 19:26:55;;;;;;;9.82;5.90;;;2.40;99.90;;;;;;4833857;29;20050;-80
2022/12/07 19:29:22;;;;;;;11.02;6.88;;;2.40;99.90;;;;;;4837402;29;20046;-80
2022/12/07 19:31:49;;;;;;;12.13;6.07;;;2.30;99.90;;;;;;4837172;29;20068;-80
2022/12/07 19:34:16;;;;;;;9.38;5.53;;;2.30;99.90;;;;;;4831237;29;20053;-79
2022/12/07 19:36:44;;;;;;;10.93;5.85;;;2.30;99.90;;;;;;4836277;29;20042;-79
2022/12/07 19:39:11;;;;;;;8.50;5.13;;;2.20;99.90;;;;;;4833174;29;20046;-79
2022/12/07 19:41:42;;;;;;;7.93;4.65;;;2.20;99.90;;;;;;4839885;29;20516;-79
2022/12/07 19:44:15;;;;;;;8.57;4.80;;;2.20;99.90;;;;;;4838595;29;20042;-79
2022/12/07 19:46:45;;;;;;;9.77;5.75;;;2.10;99.90;;;;;;4834591;29;20050;-80
2022/12/07 19:49:14;;;;;;;8.65;4.70;;;2.10;99.90;;;;;;4838292;29;20096;-80
2022/12/07 19:51:44;;;;;;;10.50;4.47;;;2.10;99.90;;;;;;4832404;29;20076;-79
2022/12/07 19:54:13;;;;;;;20.98;11.00;;;2.10;99.90;;;;;;4832819;29;20054;-80
2022/12/07 19:56:41;;;;;;;18.55;8.35;;;2.10;99.90;;;;;;4835402;29;20539;-79
2022/12/07 19:59:09;;;;;;;10.68;6.43;;;2.10;99.90;;;;;;4840070;29;20056;-79
2022/12/07 20:01:36;;;;;;;6.00;5.40;;;2.00;99.90;;;;;;4833645;29;20046;-80
2022/12/07 20:04:05;;;;;;;10.18;7.07;;;2.00;99.90;;;;;;4835524;29;20419;-79
2022/12/07 20:06:31;;;;;;;9.40;6.88;;;1.90;99.90;;;;;;4828553;29;20054;-80
2022/12/07 20:08:58;;;;;;;7.13;6.00;;;1.90;99.90;;;;;;4838062;29;20156;-79
2022/12/07 20:14:11;;;;;;;7.57;5.47;;;1.90;99.90;;;;;;4837103;29;20054;-79
2022/12/07 20:16:44;;;;;;;5.80;3.67;;;1.90;99.90;;;;;;4835296;29;20042;-79
2022/12/07 20:19:13;;;;;;;7.70;4.15;;;1.90;99.90;;;;;;4834107;29;20060;-80
2022/12/07 20:21:41;;;;;;;5.93;3.38;;;1.90;99.90;;;;;;4832624;29;20508;-79
2022/12/07 20:24:10;;;;;;;8.38;4.07;;;1.90;99.90;;;;;;4836149;29;20051;-79
2022/12/07 20:26:38;;;;;;;8.18;4.75;;;1.90;99.90;;;;;;4831318;29;20069;-80
2022/12/07 20:29:09;;;;;;;5.82;3.50;;;1.90;99.90;;;;;;4831861;29;20050;-79
2022/12/07 20:31:44;;;;;;;4.97;3.20;;;1.90;99.90;;;;;;4833237;29;20060;-80
2022/12/07 20:34:10;;;;;;;4.47;3.05;;;1.90;99.90;;;;;;4833588;29;20056;-80
2022/12/07 20:36:37;;;;;;;5.65;3.80;;;1.90;99.90;;;;;;4846046;29;20048;-79
2022/12/07 20:39:05;;;;;;;9.25;4.22;;;2.00;99.90;;;;;;4839643;29;20046;-80
2022/12/07 20:44:18;;;;;;;6.47;4.03;;;1.90;99.90;;;;;;4830246;29;20144;-79
2022/12/07 20:46:45;;;;;;;7.20;4.07;;;2.00;99.90;;;;;;4827846;29;20053;-80
2022/12/07 20:49:15;;;;;;;7.78;4.20;;;2.00;99.90;;;;;;4826230;29;20057;-79
2022/12/07 20:51:43;;;;;;;5.35;3.75;;;2.10;99.90;;;;;;4834524;29;20089;-80
2022/12/07 20:54:10;;;;;;;8.60;5.00;;;2.10;99.90;;;;;;4838289;29;20055;-80